createdAt,value
2018-10-18T00:00:49.284Z,32.90
2018-10-18T00:01:49.270Z,33.80
2018-10-18T00:02:49.265Z,31.70
2018-10-18T00:03:49.233Z,33.90
2018-10-18T00:04:49.228Z,32.60
2018-10-18T00:05:49.200Z,31.40
2018-10-18T00:06:49.193Z,32.60
2018-10-18T00:07:49.198Z,33.70
2018-10-18T00:08:49.153Z,32.60
2018-10-18T00:09:49.142Z,32.00
2018-10-18T00:10:49.122Z,34.10
2018-10-18T00:11:49.101Z,31.50
2018-10-18T00:12:49.092Z,32.80
2018-10-18T00:13:49.103Z,32.50
2018-10-18T00:14:49.056Z,33.10
2018-10-18T00:15:49.040Z,31.80
2018-10-18T00:16:49.028Z,31.90
2018-10-18T00:17:49.015Z,33.00
2018-10-18T00:18:48.999Z,34.30
2018-10-18T00:19:48.996Z,31.20
2018-10-18T00:20:48.954Z,30.70
2018-10-18T00:21:48.945Z,33.80
2018-10-18T00:22:48.924Z,32.20
2018-10-18T00:23:48.928Z,32.70
2018-10-18T00:24:48.898Z,31.70
2018-10-18T00:25:48.878Z,30.60
2018-10-18T00:26:48.863Z,33.10
2018-10-18T00:27:48.844Z,29.90
2018-10-18T00:28:48.828Z,32.40
2018-10-18T00:29:48.840Z,30.40
2018-10-18T00:30:48.796Z,30.40
2018-10-18T00:31:48.778Z,33.10
2018-10-18T00:32:48.763Z,30.50
2018-10-18T00:33:48.748Z,33.40
2018-10-18T00:34:48.753Z,31.10
2018-10-18T00:35:48.710Z,33.70
2018-10-18T00:36:48.697Z,31.30
2018-10-18T00:37:48.683Z,31.20
2018-10-18T00:38:48.666Z,31.90
2018-10-18T00:39:48.665Z,31.60
2018-10-18T00:40:48.648Z,33.90
2018-10-18T00:41:48.617Z,33.60
2018-10-18T00:42:48.596Z,30.90
2018-10-18T00:43:48.590Z,32.70
2018-10-18T00:44:48.588Z,31.40
2018-10-18T00:45:48.546Z,30.20
2018-10-18T00:46:48.537Z,30.20
2018-10-18T00:47:48.514Z,30.80
2018-10-18T00:48:48.500Z,30.20
2018-10-18T00:49:48.485Z,31.90
2018-10-18T00:50:48.478Z,31.40
2018-10-18T00:51:48.468Z,32.20
2018-10-18T00:52:48.441Z,32.70
2018-10-18T00:53:48.419Z,31.80
2018-10-18T00:54:48.421Z,32.50
2018-10-18T00:55:48.406Z,31.40
2018-10-18T00:56:48.369Z,30.90
2018-10-18T00:57:48.356Z,34.50
2018-10-18T00:58:48.339Z,31.70
2018-10-18T00:59:48.317Z,32.00
2018-10-18T01:00:48.311Z,32.60
2018-10-18T01:01:48.314Z,33.50
2018-10-18T01:02:48.292Z,31.70
2018-10-18T01:03:48.254Z,34.90
2018-10-18T01:04:48.236Z,30.00
2018-10-18T01:05:48.225Z,32.00
2018-10-18T01:06:48.206Z,31.30
2018-10-18T01:07:48.215Z,30.70
2018-10-18T01:08:48.173Z,32.50
2018-10-18T01:09:48.331Z,31.10
2018-10-18T01:10:48.137Z,29.40
2018-10-18T01:11:48.140Z,31.90
2018-10-18T01:12:48.129Z,32.50
2018-10-18T01:13:48.102Z,31.20
2018-10-18T01:14:48.076Z,31.30
2018-10-18T01:15:48.059Z,31.60
2018-10-18T01:16:48.044Z,30.20
2018-10-18T01:17:48.040Z,31.60
2018-10-18T01:18:48.008Z,29.30
2018-10-18T01:19:47.989Z,30.70
2018-10-18T01:20:47.978Z,29.90
2018-10-18T01:21:47.976Z,30.60
2018-10-18T01:22:47.943Z,33.80
2018-10-18T01:23:47.925Z,31.40
2018-10-18T01:24:47.902Z,31.10
2018-10-18T01:25:47.893Z,31.40
2018-10-18T01:26:47.895Z,34.20
2018-10-18T01:27:47.861Z,32.80
2018-10-18T01:28:47.840Z,31.10
2018-10-18T01:29:47.833Z,30.60
2018-10-18T01:30:47.808Z,31.90
2018-10-18T01:31:47.823Z,32.50
2018-10-18T01:32:47.778Z,30.20
2018-10-18T01:33:47.770Z,30.80
2018-10-18T01:34:47.751Z,32.10
2018-10-18T01:35:47.746Z,31.30
2018-10-18T01:36:47.719Z,32.30
2018-10-18T01:37:47.695Z,31.90
2018-10-18T01:38:47.678Z,34.10
2018-10-18T01:39:47.662Z,33.00
2018-10-18T01:40:47.664Z,31.30
2018-10-18T01:41:47.628Z,30.40
2018-10-18T01:42:47.618Z,32.10
2018-10-18T01:43:47.597Z,34.30
2018-10-18T01:44:48.116Z,33.00
2018-10-18T01:45:47.568Z,32.70
2018-10-18T01:46:47.564Z,34.10
2018-10-18T01:47:47.523Z,30.90
2018-10-18T01:48:47.509Z,33.00
2018-10-18T01:49:47.492Z,30.10
2018-10-18T01:50:47.495Z,33.90
2018-10-18T01:51:47.457Z,32.90
2018-10-18T01:52:47.459Z,31.60
2018-10-18T01:53:47.426Z,31.90
2018-10-18T01:54:47.412Z,34.10
2018-10-18T01:55:47.394Z,31.30
2018-10-18T01:56:47.397Z,33.20
2018-10-18T01:57:47.378Z,30.00
2018-10-18T01:58:47.340Z,33.50
2018-10-18T01:59:47.334Z,32.50
2018-10-18T02:00:47.311Z,34.30
2018-10-18T02:01:47.310Z,34.30
2018-10-18T02:02:47.297Z,30.70
2018-10-18T02:03:47.260Z,32.70
2018-10-18T02:04:47.246Z,31.50
2018-10-18T02:05:47.228Z,30.90
2018-10-18T02:06:47.210Z,31.80
2018-10-18T02:07:47.203Z,33.00
2018-10-18T02:08:47.202Z,35.60
2018-10-18T02:09:47.158Z,31.70
2018-10-18T02:10:47.141Z,34.70
2018-10-18T02:11:47.131Z,34.30
2018-10-18T02:12:47.131Z,34.00
2018-10-18T02:13:47.137Z,35.00
2018-10-18T02:14:47.079Z,33.00
2018-10-18T02:15:47.064Z,33.40
2018-10-18T02:16:47.048Z,33.60
2018-10-18T02:17:47.055Z,33.30
2018-10-18T02:18:47.013Z,33.00
2018-10-18T02:19:46.995Z,33.80
2018-10-18T02:20:46.979Z,34.40
2018-10-18T02:21:46.961Z,33.30
2018-10-18T02:22:46.947Z,34.60
2018-10-18T02:23:46.989Z,35.30
2018-10-18T02:24:46.912Z,34.50
2018-10-18T02:25:46.898Z,33.60
2018-10-18T02:26:46.898Z,32.30
2018-10-18T02:27:46.860Z,35.10
2018-10-18T02:28:46.850Z,34.80
2018-10-18T02:29:46.833Z,34.30
2018-10-18T02:30:46.815Z,36.90
2018-10-18T02:31:46.816Z,35.50
2018-10-18T02:32:46.780Z,35.50
2018-10-18T02:33:46.764Z,37.90
2018-10-18T02:34:46.754Z,37.20
2018-10-18T02:35:46.734Z,36.80
2018-10-18T02:36:46.738Z,38.40
2018-10-18T02:37:46.700Z,33.70
2018-10-18T02:38:46.683Z,38.90
2018-10-18T02:39:46.677Z,36.10
2018-10-18T02:40:46.665Z,37.00
2018-10-18T02:41:46.654Z,34.00
2018-10-18T02:42:46.640Z,36.90
2018-10-18T02:43:46.612Z,34.90
2018-10-18T02:44:46.592Z,33.80
2018-10-18T02:45:46.562Z,37.80
2018-10-18T02:46:46.550Z,36.00
2018-10-18T02:47:46.558Z,37.00
2018-10-18T02:48:46.520Z,36.50
2018-10-18T02:49:46.518Z,36.80
2018-10-18T02:50:46.487Z,33.50
2018-10-18T02:51:46.488Z,35.40
2018-10-18T02:52:46.471Z,35.10
2018-10-18T02:53:46.439Z,36.00
2018-10-18T02:54:46.414Z,36.50
2018-10-18T02:55:46.405Z,35.90
2018-10-18T02:56:46.388Z,35.70
2018-10-18T02:57:46.392Z,35.60
2018-10-18T02:58:46.373Z,36.50
2018-10-18T02:59:46.343Z,34.60
2018-10-18T03:00:46.322Z,35.70
2018-10-18T03:01:46.316Z,37.10
2018-10-18T03:02:46.304Z,37.10
2018-10-18T03:03:46.300Z,35.50
2018-10-18T03:04:46.257Z,33.30
2018-10-18T03:05:46.241Z,36.80
2018-10-18T03:06:46.226Z,36.70
2018-10-18T03:07:46.214Z,35.70
2018-10-18T03:08:46.192Z,38.50
2018-10-18T03:09:46.207Z,34.50
2018-10-18T03:10:46.188Z,37.40
2018-10-18T03:11:46.151Z,37.40
2018-10-18T03:12:46.133Z,35.00
2018-10-18T03:13:46.112Z,35.50
2018-10-18T03:14:46.114Z,39.80
2018-10-18T03:15:46.085Z,38.50
2018-10-18T03:16:46.061Z,39.20
2018-10-18T03:17:46.046Z,38.60
2018-10-18T03:18:46.029Z,38.00
2018-10-18T03:19:46.033Z,36.60
2018-10-18T03:20:46.005Z,37.60
2018-10-18T03:21:45.980Z,37.00
2018-10-18T03:22:45.964Z,38.90
2018-10-18T03:23:45.948Z,38.20
2018-10-18T03:24:45.950Z,38.90
2018-10-18T03:25:45.930Z,39.20
2018-10-18T03:26:45.913Z,42.20
2018-10-18T03:27:45.884Z,39.20
2018-10-18T03:28:45.869Z,41.30
2018-10-18T03:29:45.849Z,38.90
2018-10-18T03:30:45.851Z,42.30
2018-10-18T03:31:45.831Z,40.20
2018-10-18T03:32:45.801Z,41.60
2018-10-18T03:33:45.784Z,37.70
2018-10-18T03:34:45.769Z,38.60
2018-10-18T03:35:45.754Z,37.30
2018-10-18T03:36:45.762Z,38.60
2018-10-18T03:37:45.724Z,39.10
2018-10-18T03:38:45.705Z,38.90
2018-10-18T03:39:45.688Z,37.20
2018-10-18T03:40:45.671Z,37.50
2018-10-18T03:41:45.654Z,40.60
2018-10-18T03:42:45.652Z,38.80
2018-10-18T03:43:45.621Z,39.40
2018-10-18T03:44:45.606Z,40.80
2018-10-18T03:45:45.593Z,38.60
2018-10-18T03:46:45.590Z,36.30
2018-10-18T03:47:45.564Z,37.20
2018-10-18T03:48:45.539Z,39.20
2018-10-18T03:49:45.521Z,37.40
2018-10-18T03:50:45.504Z,34.60
2018-10-18T03:51:45.488Z,36.20
2018-10-18T03:52:45.496Z,34.80
2018-10-18T03:53:45.458Z,36.00
2018-10-18T03:54:45.444Z,35.80
2018-10-18T03:55:45.433Z,34.00
2018-10-18T03:56:45.411Z,35.50
2018-10-18T03:57:45.411Z,38.90
2018-10-18T03:58:45.385Z,36.60
2018-10-18T03:59:45.513Z,36.20
2018-10-18T04:00:45.341Z,37.40
2018-10-18T04:01:45.335Z,37.30
2018-10-18T04:02:45.318Z,36.00
2018-10-18T04:03:45.310Z,38.40
2018-10-18T04:04:45.281Z,38.50
2018-10-18T04:05:45.266Z,37.10
2018-10-18T04:06:45.249Z,40.40
2018-10-18T04:07:45.239Z,38.30
2018-10-18T04:08:45.235Z,36.50
2018-10-18T04:09:45.201Z,37.30
2018-10-18T04:10:45.183Z,37.90
2018-10-18T04:11:45.162Z,36.40
2018-10-18T04:12:45.232Z,36.00
2018-10-18T04:13:45.152Z,36.10
2018-10-18T04:14:45.119Z,37.10
2018-10-18T04:15:45.100Z,36.50
2018-10-18T04:16:45.085Z,35.80
2018-10-18T04:17:45.101Z,36.30
2018-10-18T04:18:45.055Z,39.30
2018-10-18T04:19:45.061Z,38.40
2018-10-18T04:20:45.018Z,38.10
2018-10-18T04:21:45.009Z,37.20
2018-10-18T04:22:44.990Z,37.20
2018-10-18T04:23:44.972Z,39.00
2018-10-18T04:24:44.959Z,40.20
2018-10-18T04:25:44.966Z,36.40
2018-10-18T04:26:44.931Z,37.20
2018-10-18T04:27:44.906Z,37.70
2018-10-18T04:28:44.892Z,38.60
2018-10-18T04:29:44.901Z,36.70
2018-10-18T04:30:44.861Z,35.90
2018-10-18T04:31:44.846Z,37.60
2018-10-18T04:32:44.825Z,35.90
2018-10-18T04:33:44.816Z,38.10
2018-10-18T04:34:44.823Z,36.00
2018-10-18T04:35:44.801Z,37.60
2018-10-18T04:36:44.771Z,34.50
2018-10-18T04:37:44.749Z,36.20
2018-10-18T04:38:44.742Z,36.60
2018-10-18T04:39:44.720Z,36.50
2018-10-18T04:40:44.719Z,35.70
2018-10-18T04:41:44.704Z,34.80
2018-10-18T04:42:44.669Z,37.10
2018-10-18T04:43:44.654Z,37.90
2018-10-18T04:44:44.636Z,35.00
2018-10-18T04:45:44.621Z,37.70
2018-10-18T04:46:44.628Z,37.00
2018-10-18T04:47:44.641Z,37.60
2018-10-18T04:48:44.660Z,36.80
2018-10-18T04:49:44.556Z,37.60
2018-10-18T04:50:44.542Z,36.80
2018-10-18T04:51:44.526Z,35.80
2018-10-18T04:52:44.532Z,36.30
2018-10-18T04:53:44.497Z,34.00
2018-10-18T04:54:44.477Z,37.40
2018-10-18T04:55:44.463Z,34.10
2018-10-18T04:56:44.523Z,34.70
2018-10-18T04:57:44.454Z,38.80
2018-10-18T04:58:44.414Z,37.60
2018-10-18T04:59:44.409Z,37.40
2018-10-18T05:00:44.379Z,38.40
2018-10-18T05:01:44.369Z,37.20
2018-10-18T05:02:44.395Z,37.00
2018-10-18T05:03:44.336Z,37.40
2018-10-18T05:04:44.324Z,36.60
2018-10-18T05:05:44.310Z,37.00
2018-10-18T05:06:44.292Z,39.30
2018-10-18T05:07:44.277Z,37.30
2018-10-18T05:08:44.272Z,38.50
2018-10-18T05:09:44.238Z,36.40
2018-10-18T05:10:44.240Z,36.80
2018-10-18T05:11:44.208Z,37.70
2018-10-18T05:12:44.278Z,39.60
2018-10-18T05:13:44.194Z,38.90
2018-10-18T05:14:44.174Z,37.60
2018-10-18T05:15:44.142Z,38.60
2018-10-18T05:16:44.139Z,37.60
2018-10-18T05:17:44.110Z,35.40
2018-10-18T05:18:44.098Z,38.20
2018-10-18T05:19:44.102Z,37.50
2018-10-18T05:20:44.069Z,35.00
2018-10-18T05:21:44.046Z,36.90
2018-10-18T05:22:44.038Z,38.90
2018-10-18T05:23:44.048Z,37.50
2018-10-18T05:24:44.004Z,39.10
2018-10-18T05:25:44.067Z,37.70
2018-10-18T05:26:43.964Z,36.20
2018-10-18T05:27:43.952Z,36.90
2018-10-18T05:28:43.940Z,38.20
2018-10-18T05:29:43.917Z,37.20
2018-10-18T05:30:43.922Z,33.40
2018-10-18T05:31:43.988Z,36.50
2018-10-18T05:32:43.879Z,35.90
2018-10-18T05:33:43.856Z,35.50
2018-10-18T05:34:43.842Z,35.80
2018-10-18T05:35:43.824Z,36.70
2018-10-18T05:36:43.829Z,36.20
2018-10-18T05:37:43.878Z,36.10
2018-10-18T05:38:43.782Z,39.00
2018-10-18T05:39:43.767Z,35.90
2018-10-18T05:40:43.745Z,34.60
2018-10-18T05:41:43.741Z,34.30
2018-10-18T05:42:43.734Z,32.90
2018-10-18T05:43:43.698Z,37.30
2018-10-18T05:44:43.699Z,36.00
2018-10-18T05:45:43.667Z,36.30
2018-10-18T05:46:43.682Z,36.20
2018-10-18T05:47:43.656Z,35.30
2018-10-18T05:48:43.630Z,34.70
2018-10-18T05:49:43.603Z,38.10
2018-10-18T05:50:43.582Z,35.60
2018-10-18T05:51:43.570Z,37.00
2018-10-18T05:52:49.596Z,36.20
2018-10-18T05:53:43.658Z,38.80
2018-10-18T05:54:43.525Z,35.70
2018-10-18T05:55:43.507Z,37.90
2018-10-18T05:56:43.493Z,36.40
2018-10-18T05:57:43.497Z,37.30
2018-10-18T05:58:43.460Z,37.20
2018-10-18T05:59:43.444Z,35.40
2018-10-18T06:00:43.429Z,37.00
2018-10-18T06:01:43.412Z,35.70
2018-10-18T06:02:43.412Z,36.00
2018-10-18T06:03:43.379Z,36.20
2018-10-18T06:04:43.363Z,36.40
2018-10-18T06:05:43.345Z,36.00
2018-10-18T06:06:43.332Z,37.00
2018-10-18T06:07:43.313Z,35.70
2018-10-18T06:08:43.317Z,37.00
2018-10-18T06:09:43.291Z,35.00
2018-10-18T06:10:43.275Z,32.70
2018-10-18T06:11:43.255Z,35.20
2018-10-18T06:12:43.240Z,32.90
2018-10-18T06:13:43.240Z,32.30
2018-10-18T06:14:43.205Z,33.30
2018-10-18T06:15:43.214Z,33.50
2018-10-18T06:16:43.173Z,33.10
2018-10-18T06:17:43.156Z,29.80
2018-10-18T06:18:43.141Z,31.10
2018-10-18T06:19:43.132Z,33.10
2018-10-18T06:20:43.111Z,31.10
2018-10-18T06:21:43.141Z,30.10
2018-10-18T06:22:43.149Z,32.80
2018-10-18T06:23:43.082Z,29.60
2018-10-18T06:24:43.052Z,31.70
2018-10-18T06:25:43.032Z,31.40
2018-10-18T06:26:43.036Z,32.40
2018-10-18T06:27:43.002Z,31.90
2018-10-18T06:28:42.988Z,31.30
2018-10-18T06:29:42.976Z,31.70
2018-10-18T06:30:42.954Z,31.00
2018-10-18T06:31:42.941Z,32.50
2018-10-18T06:32:42.942Z,32.10
2018-10-18T06:33:42.901Z,31.30
2018-10-18T06:34:42.912Z,32.40
2018-10-18T06:35:42.879Z,30.00
2018-10-18T06:36:42.859Z,29.30
2018-10-18T06:37:42.843Z,29.60
2018-10-18T06:38:42.825Z,31.90
2018-10-18T06:39:42.835Z,31.20
2018-10-18T06:40:42.797Z,29.50
2018-10-18T06:41:42.780Z,29.40
2018-10-18T06:42:42.763Z,26.40
2018-10-18T06:43:42.746Z,26.40
2018-10-18T06:44:42.752Z,27.90
2018-10-18T06:45:42.715Z,26.10
2018-10-18T06:46:42.729Z,26.40
2018-10-18T06:47:42.802Z,26.80
2018-10-18T06:48:42.676Z,26.90
2018-10-18T06:49:42.679Z,27.20
2018-10-18T06:50:42.640Z,27.10
2018-10-18T06:51:42.621Z,29.50
2018-10-18T06:52:42.608Z,25.90
2018-10-18T06:53:42.592Z,26.40
2018-10-18T06:54:42.600Z,27.40
2018-10-18T06:55:42.558Z,28.20
2018-10-18T06:56:42.543Z,27.40
2018-10-18T06:57:42.528Z,28.30
2018-10-18T06:58:42.509Z,27.20
2018-10-18T06:59:42.554Z,25.90
2018-10-18T07:00:43.251Z,26.30
2018-10-18T07:01:42.486Z,23.50
2018-10-18T07:02:42.441Z,26.60
2018-10-18T07:03:42.433Z,26.20
2018-10-18T07:04:42.418Z,28.30
2018-10-18T07:05:42.403Z,25.60
2018-10-18T07:06:42.391Z,25.20
2018-10-18T07:07:42.386Z,27.90
2018-10-18T07:08:42.357Z,28.70
2018-10-18T07:09:42.336Z,26.70
2018-10-18T07:10:42.337Z,27.90
2018-10-18T07:11:42.308Z,27.30
2018-10-18T07:12:42.309Z,25.60
2018-10-18T07:13:42.277Z,27.00
2018-10-18T07:14:42.260Z,26.30
2018-10-18T07:15:42.250Z,25.90
2018-10-18T07:16:42.254Z,24.10
2018-10-18T07:17:42.289Z,26.90
2018-10-18T07:18:42.211Z,25.20
2018-10-18T07:19:42.191Z,25.10
2018-10-18T07:20:42.172Z,22.40
2018-10-18T07:21:42.156Z,22.70
2018-10-18T07:22:42.151Z,23.30
2018-10-18T07:23:42.117Z,22.30
2018-10-18T07:24:42.104Z,23.00
2018-10-18T07:25:42.088Z,26.70
2018-10-18T07:26:42.088Z,23.70
2018-10-18T07:27:42.081Z,23.50
2018-10-18T07:28:42.046Z,22.70
2018-10-18T07:29:42.020Z,21.60
2018-10-18T07:30:42.015Z,23.00
2018-10-18T07:31:42.010Z,22.00
2018-10-18T07:32:41.978Z,21.90
2018-10-18T07:33:41.961Z,23.20
2018-10-18T07:34:41.964Z,21.00
2018-10-18T07:35:41.928Z,21.40
2018-10-18T07:38:50.702Z,23.90
2018-10-18T07:39:50.666Z,21.60
2018-10-18T07:40:50.662Z,23.10
2018-10-18T07:41:50.638Z,22.30
2018-10-18T07:42:51.220Z,21.30
2018-10-18T07:43:50.611Z,20.10
2018-10-18T07:44:50.599Z,19.30
2018-10-18T07:45:50.587Z,20.80
2018-10-18T07:46:50.623Z,22.20
2018-10-18T07:47:50.540Z,21.20
2018-10-18T07:48:50.546Z,19.70
2018-10-18T07:49:50.513Z,20.90
2018-10-18T07:50:50.501Z,19.50
2018-10-18T07:51:50.508Z,19.10
2018-10-18T07:52:50.497Z,21.80
2018-10-18T07:53:50.453Z,18.80
2018-10-18T07:54:50.432Z,20.30
2018-10-18T07:55:50.438Z,18.60
2018-10-18T07:56:50.407Z,21.10
2018-10-18T07:57:50.386Z,21.40
2018-10-18T07:58:50.370Z,18.80
2018-10-18T07:59:50.388Z,18.00
2018-10-18T08:00:50.463Z,18.50
2018-10-18T08:01:50.339Z,17.90
2018-10-18T08:02:50.317Z,17.80
2018-10-18T08:03:50.295Z,18.80
2018-10-18T08:04:50.282Z,20.00
2018-10-18T08:05:50.279Z,19.40
2018-10-18T08:06:50.246Z,17.70
2018-10-18T08:07:50.249Z,17.90
2018-10-18T08:08:50.213Z,19.20
2018-10-18T08:09:50.249Z,18.10
2018-10-18T08:10:50.368Z,20.20
2018-10-18T08:11:50.174Z,19.30
2018-10-18T08:12:50.167Z,18.20
2018-10-18T08:13:50.144Z,17.80
2018-10-18T08:14:50.123Z,17.40
2018-10-18T08:15:50.123Z,17.30
2018-10-18T08:16:50.105Z,18.20
2018-10-18T08:17:50.068Z,17.20
2018-10-18T08:18:50.052Z,16.90
2018-10-18T08:19:50.038Z,18.10
2018-10-18T08:20:50.021Z,17.20
2018-10-18T08:21:50.025Z,17.30
2018-10-18T08:22:49.990Z,17.80
2018-10-18T08:23:49.997Z,18.70
2018-10-18T08:24:49.961Z,18.40
2018-10-18T08:25:49.955Z,20.40
2018-10-18T08:26:49.928Z,18.00
2018-10-18T08:27:49.910Z,18.80
2018-10-18T08:28:49.902Z,18.10
2018-10-18T08:29:49.899Z,18.80
2018-10-18T08:30:49.867Z,18.90
2018-10-18T08:31:49.909Z,18.40
2018-10-18T08:32:49.835Z,18.10
2018-10-18T08:33:49.839Z,18.30
2018-10-18T08:34:49.796Z,17.50
2018-10-18T08:35:49.786Z,18.80
2018-10-18T08:36:49.772Z,17.80
2018-10-18T08:37:49.908Z,18.10
2018-10-18T08:38:49.774Z,18.10
2018-10-18T08:39:49.723Z,18.60
2018-10-18T08:40:49.711Z,19.50
2018-10-18T08:41:49.694Z,19.30
2018-10-18T08:42:49.671Z,19.40
2018-10-18T08:43:49.709Z,18.70
2018-10-18T08:44:49.663Z,18.40
2018-10-18T08:45:49.636Z,19.10
2018-10-18T08:46:49.639Z,19.40
2018-10-18T08:47:49.593Z,19.60
2018-10-18T08:48:49.585Z,19.10
2018-10-18T08:49:49.633Z,19.40
2018-10-18T08:50:49.550Z,19.00
2018-10-18T08:51:49.537Z,21.50
2018-10-18T08:52:49.553Z,19.80
2018-10-18T08:53:49.505Z,18.90
2018-10-18T08:54:49.482Z,20.80
2018-10-18T08:55:49.479Z,19.70
2018-10-18T08:56:49.455Z,18.40
2018-10-18T08:57:49.438Z,19.00
2018-10-18T08:58:49.437Z,21.70
2018-10-18T08:59:49.414Z,22.30
2018-10-18T09:00:49.404Z,22.00
2018-10-18T09:01:49.378Z,21.30
2018-10-18T09:02:49.385Z,19.50
2018-10-18T09:03:49.344Z,18.70
2018-10-18T09:04:49.329Z,20.00
2018-10-18T09:05:49.317Z,20.80
2018-10-18T09:06:49.322Z,20.50
2018-10-18T09:07:49.283Z,21.20
2018-10-18T09:08:49.284Z,21.30
2018-10-18T09:09:49.251Z,24.30
2018-10-18T09:10:49.241Z,23.40
2018-10-18T09:11:49.225Z,23.20
2018-10-18T09:12:49.203Z,26.40
2018-10-18T09:13:49.206Z,28.80
2018-10-18T09:14:49.173Z,27.70
2018-10-18T09:15:49.178Z,28.60
2018-10-18T09:16:49.145Z,27.80
2018-10-18T09:17:49.124Z,27.90
2018-10-18T09:18:49.111Z,27.70
2018-10-18T09:19:49.126Z,27.90
2018-10-18T09:20:49.088Z,27.40
2018-10-18T09:21:49.059Z,28.50
2018-10-18T09:22:49.055Z,26.50
2018-10-18T09:23:49.077Z,26.20
2018-10-18T09:24:49.034Z,24.90
2018-10-18T09:25:49.016Z,24.90
2018-10-18T09:26:48.990Z,25.50
2018-10-18T09:27:48.971Z,23.60
2018-10-18T09:28:48.978Z,23.20
2018-10-18T09:29:48.942Z,24.40
2018-10-18T09:30:48.950Z,21.60
2018-10-18T09:31:48.919Z,20.70
2018-10-18T09:32:48.907Z,20.10
2018-10-18T09:33:48.890Z,21.20
2018-10-18T09:34:48.866Z,19.00
2018-10-18T09:35:48.855Z,19.30
2018-10-18T09:36:48.868Z,18.40
2018-10-18T09:37:48.828Z,18.20
2018-10-18T09:38:48.809Z,17.30
2018-10-18T09:39:48.796Z,17.70
2018-10-18T09:40:48.779Z,18.80
2018-10-18T09:41:48.782Z,18.10
2018-10-18T09:42:48.752Z,17.30
2018-10-18T09:43:48.740Z,17.90
2018-10-18T09:44:49.173Z,17.40
2018-10-18T09:45:48.706Z,17.60
2018-10-18T09:46:48.691Z,19.70
2018-10-18T09:47:48.701Z,18.10
2018-10-18T09:48:48.662Z,17.90
2018-10-18T09:49:48.656Z,17.80
2018-10-18T09:50:48.636Z,19.00
2018-10-18T09:51:48.648Z,17.50
2018-10-18T09:52:48.628Z,17.50
2018-10-18T09:53:48.595Z,17.60
2018-10-18T09:54:48.584Z,17.50
2018-10-18T09:55:48.660Z,17.20
2018-10-18T09:56:48.563Z,16.80
2018-10-18T09:57:48.553Z,17.10
2018-10-18T09:58:48.522Z,16.40
2018-10-18T09:59:48.514Z,15.70
2018-10-18T10:00:48.487Z,15.50
2018-10-18T10:01:48.480Z,15.10
2018-10-18T10:02:48.487Z,14.80
2018-10-18T10:03:48.463Z,12.80
2018-10-18T10:04:48.439Z,13.50
2018-10-18T10:05:48.425Z,13.20
2018-10-18T10:06:48.410Z,12.80
2018-10-18T10:07:48.407Z,12.50
2018-10-18T10:08:48.397Z,11.90
2018-10-18T10:09:48.364Z,11.80
2018-10-18T10:10:48.359Z,11.00
2018-10-18T10:11:48.522Z,10.70
2018-10-18T10:12:48.339Z,9.90
2018-10-18T10:13:48.384Z,10.90
2018-10-18T10:14:48.330Z,9.40
2018-10-18T10:15:48.303Z,9.30
2018-10-18T10:16:48.276Z,8.90
2018-10-18T10:17:48.345Z,9.30
2018-10-18T10:18:48.263Z,11.20
2018-10-18T10:19:48.231Z,9.30
2018-10-18T10:20:48.226Z,9.70
2018-10-18T10:21:48.226Z,9.50
2018-10-18T10:22:48.190Z,9.70
2018-10-18T10:23:48.192Z,9.10
2018-10-18T10:24:48.248Z,9.20
2018-10-18T10:25:48.169Z,9.40
2018-10-18T10:26:48.143Z,8.80
2018-10-18T10:27:48.133Z,7.30
2018-10-18T10:28:48.116Z,7.70
2018-10-18T10:29:48.117Z,7.70
2018-10-18T10:30:48.089Z,7.10
2018-10-18T10:31:48.075Z,7.20
2018-10-18T10:32:48.090Z,7.40
2018-10-18T10:33:48.056Z,7.00
2018-10-18T10:34:48.059Z,7.40
2018-10-18T10:35:48.029Z,6.90
2018-10-18T10:36:48.021Z,7.40
2018-10-18T10:37:48.027Z,7.20
2018-10-18T10:38:47.995Z,7.00
2018-10-18T10:39:48.010Z,6.80
2018-10-18T10:40:47.987Z,7.60
2018-10-18T10:41:47.977Z,9.10
2018-10-18T10:42:47.962Z,6.90
2018-10-18T10:43:47.945Z,6.30
2018-10-18T10:44:47.942Z,6.60
2018-10-18T10:45:48.061Z,6.50
2018-10-18T10:46:47.918Z,6.50
2018-10-18T10:47:47.907Z,7.10
2018-10-18T10:48:47.894Z,6.40
2018-10-18T10:49:47.881Z,7.90
2018-10-18T10:50:47.875Z,6.00
2018-10-18T10:51:47.881Z,6.50
2018-10-18T10:52:47.853Z,6.00
2018-10-18T10:53:47.840Z,6.10
2018-10-18T10:54:47.831Z,5.60
2018-10-18T10:55:47.824Z,7.30
2018-10-18T10:56:47.808Z,6.80
2018-10-18T10:57:47.828Z,5.70
2018-10-18T10:58:47.850Z,6.10
2018-10-18T10:59:47.782Z,5.70
2018-10-18T11:00:47.769Z,5.70
2018-10-18T11:01:47.765Z,5.50
2018-10-18T11:02:47.769Z,6.40
2018-10-18T11:03:48.273Z,5.60
2018-10-18T11:04:47.746Z,5.40
2018-10-18T11:05:47.712Z,6.00
2018-10-18T11:06:47.702Z,5.10
2018-10-18T11:07:47.695Z,5.70
2018-10-18T11:08:47.679Z,4.90
2018-10-18T11:09:47.787Z,4.50
2018-10-18T11:10:47.677Z,4.70
2018-10-18T11:11:47.698Z,4.80
2018-10-18T11:12:47.638Z,5.60
2018-10-18T11:13:47.635Z,4.10
2018-10-18T11:14:47.645Z,4.80
2018-10-18T11:15:47.614Z,4.80
2018-10-18T11:16:47.598Z,6.90
2018-10-18T11:17:47.584Z,4.70
2018-10-18T11:18:47.575Z,5.80
2018-10-18T11:19:47.576Z,5.20
2018-10-18T11:20:47.554Z,5.40
2018-10-18T11:21:47.594Z,5.00
2018-10-18T11:22:47.530Z,5.80
2018-10-18T11:23:47.553Z,4.70
2018-10-18T11:24:47.551Z,4.90
2018-10-18T11:25:47.494Z,4.60
2018-10-18T11:26:47.484Z,4.60
2018-10-18T11:27:47.473Z,4.20
2018-10-18T11:28:47.486Z,4.00
2018-10-18T11:29:47.459Z,5.10
2018-10-18T11:30:47.440Z,4.20
2018-10-18T11:31:47.430Z,3.90
2018-10-18T11:32:47.434Z,3.10
2018-10-18T11:33:47.424Z,3.80
2018-10-18T11:34:47.448Z,3.20
2018-10-18T11:35:47.389Z,3.10
2018-10-18T11:36:47.379Z,5.40
2018-10-18T11:37:47.376Z,7.80
2018-10-18T11:38:47.362Z,6.80
2018-10-18T11:39:47.369Z,7.60
2018-10-18T11:40:47.343Z,6.00
2018-10-18T11:41:47.334Z,6.50
2018-10-18T11:42:47.398Z,7.40
2018-10-18T11:43:47.315Z,6.80
2018-10-18T11:44:47.335Z,7.80
2018-10-18T11:45:47.297Z,6.50
2018-10-18T11:46:47.307Z,9.60
2018-10-18T11:47:47.273Z,7.30
2018-10-18T11:48:47.266Z,8.00
2018-10-18T11:49:47.253Z,8.80
2018-10-18T11:50:47.244Z,10.30
2018-10-18T11:51:47.423Z,9.90
2018-10-18T11:52:47.224Z,7.20
2018-10-18T11:53:47.219Z,7.50
2018-10-18T11:54:47.206Z,7.50
2018-10-18T11:55:48.295Z,7.50
2018-10-18T11:56:47.202Z,8.00
2018-10-18T11:57:47.174Z,6.50
2018-10-18T11:58:47.163Z,8.80
2018-10-18T11:59:47.153Z,7.50
2018-10-18T12:00:47.147Z,5.50
2018-10-18T12:01:47.158Z,6.40
2018-10-18T12:02:47.243Z,6.10
2018-10-18T12:03:47.111Z,6.40
2018-10-18T12:04:47.102Z,5.60
2018-10-18T12:05:47.108Z,5.10
2018-10-18T12:06:47.098Z,5.30
2018-10-18T12:07:47.069Z,5.20
2018-10-18T12:08:47.063Z,6.20
2018-10-18T12:09:47.058Z,5.30
2018-10-18T12:10:47.037Z,5.00
2018-10-18T12:11:47.054Z,4.80
2018-10-18T12:12:47.019Z,3.80
2018-10-18T12:13:47.013Z,3.90
2018-10-18T12:14:47.000Z,4.50
2018-10-18T12:15:46.987Z,4.50
2018-10-18T12:16:46.986Z,5.40
2018-10-18T12:17:47.007Z,4.40
2018-10-18T12:18:46.987Z,2.90
2018-10-18T12:19:46.954Z,3.80
2018-10-18T12:20:46.973Z,3.10
2018-10-18T12:21:46.941Z,3.20
2018-10-18T12:22:46.937Z,3.60
2018-10-18T12:23:46.949Z,3.70
2018-10-18T12:24:46.926Z,2.80
2018-10-18T12:25:46.905Z,2.60
2018-10-18T12:26:46.991Z,3.20
2018-10-18T12:27:46.923Z,3.30
2018-10-18T12:28:46.885Z,2.70
2018-10-18T12:29:46.896Z,3.10
2018-10-18T12:30:46.878Z,4.50
2018-10-18T12:31:46.864Z,3.10
2018-10-18T12:32:46.854Z,3.90
2018-10-18T12:33:46.871Z,4.10
2018-10-18T12:34:46.840Z,2.70
2018-10-18T12:35:46.857Z,3.00
2018-10-18T12:36:46.830Z,4.80
2018-10-18T12:37:46.815Z,4.60
2018-10-18T12:38:46.825Z,5.40
2018-10-18T12:39:46.967Z,4.30
2018-10-18T12:40:46.831Z,4.20
2018-10-18T12:41:46.812Z,5.00
2018-10-18T12:42:46.782Z,3.70
2018-10-18T12:43:46.768Z,5.90
2018-10-18T12:44:46.774Z,3.70
2018-10-18T12:45:46.757Z,4.90
2018-10-18T12:46:47.395Z,4.60
2018-10-18T12:47:46.722Z,4.10
2018-10-18T12:48:46.801Z,5.00
2018-10-18T12:49:46.727Z,4.70
2018-10-18T12:50:46.715Z,5.70
2018-10-18T12:51:46.689Z,5.50
2018-10-18T12:52:46.681Z,5.80
2018-10-18T12:53:46.666Z,4.20
2018-10-18T12:54:46.683Z,5.40
2018-10-18T12:55:46.656Z,4.30
2018-10-18T12:56:46.639Z,4.70
2018-10-18T12:57:46.637Z,5.30
2018-10-18T12:58:46.613Z,6.40
2018-10-18T12:59:46.633Z,5.80
2018-10-18T13:00:46.600Z,5.80